< < Back
Terminal Aerodrome Forecast


Current Version              Previous Versions:   1  2  3  4  5  6  7  8  9  

Terminal Aerodrome Forecast

559
FTUS44 KBMX 292300
TAFBHM
TAF
KBHM 292322Z 3000/3024 35005KT P6SM SKC=

Latest METAR

449
SAUS70 KWBC 300056
MTRBHM
METAR KBHM 300053Z 36006KT 10SM CLR 22/10 A3007 RMK AO2 SLP175
T02170100


USA.gov is the U.S. government's official web portal to all federal, state and local government web resources and services.